sensor_id;sensor_type;location;lat;lon;timestamp;P1;durP1;ratioP1;P2;durP2;ratioP2
11642;SDS011;5877;50.930;6.918;2023-12-20T00:04:14;5.40;;;4.90;;
11642;SDS011;5877;50.930;6.918;2023-12-20T00:09:08;4.93;;;4.10;;
11642;SDS011;5877;50.930;6.918;2023-12-20T00:14:00;5.37;;;4.87;;
11642;SDS011;5877;50.930;6.918;2023-12-20T00:18:52;11.67;;;9.20;;
11642;SDS011;5877;50.930;6.918;2023-12-20T00:23:45;8.43;;;6.07;;
11642;SDS011;5877;50.930;6.918;2023-12-20T00:28:43;5.00;;;4.60;;
11642;SDS011;5877;50.930;6.918;2023-12-20T00:33:35;4.93;;;4.53;;
11642;SDS011;5877;50.930;6.918;2023-12-20T00:38:28;5.20;;;3.90;;
11642;SDS011;5877;50.930;6.918;2023-12-20T00:43:20;3.20;;;2.90;;
11642;SDS011;5877;50.930;6.918;2023-12-20T00:48:15;3.77;;;3.47;;
11642;SDS011;5877;50.930;6.918;2023-12-20T00:53:07;4.07;;;3.77;;
11642;SDS011;5877;50.930;6.918;2023-12-20T00:58:01;4.90;;;4.50;;
11642;SDS011;5877;50.930;6.918;2023-12-20T01:02:53;5.23;;;4.00;;
11642;SDS011;5877;50.930;6.918;2023-12-20T18:28:57;9.93;;;5.57;;
11642;SDS011;5877;50.930;6.918;2023-12-20T18:33:49;8.67;;;4.60;;
11642;SDS011;5877;50.930;6.918;2023-12-20T18:38:41;6.67;;;4.50;;
11642;SDS011;5877;50.930;6.918;2023-12-20T18:43:35;7.67;;;4.07;;
11642;SDS011;5877;50.930;6.918;2023-12-20T18:48:29;9.97;;;4.50;;
11642;SDS011;5877;50.930;6.918;2023-12-20T18:53:22;9.50;;;3.80;;
11642;SDS011;5877;50.930;6.918;2023-12-20T18:58:17;5.93;;;4.10;;
11642;SDS011;5877;50.930;6.918;2023-12-20T19:03:10;10.83;;;4.00;;
11642;SDS011;5877;50.930;6.918;2023-12-20T19:08:03;9.67;;;5.10;;
11642;SDS011;5877;50.930;6.918;2023-12-20T19:12:55;8.27;;;4.03;;
11642;SDS011;5877;50.930;6.918;2023-12-20T19:17:49;8.37;;;4.07;;
11642;SDS011;5877;50.930;6.918;2023-12-20T19:22:41;11.90;;;7.33;;
11642;SDS011;5877;50.930;6.918;2023-12-20T19:27:35;10.50;;;6.67;;
11642;SDS011;5877;50.930;6.918;2023-12-20T19:32:27;9.50;;;4.50;;
11642;SDS011;5877;50.930;6.918;2023-12-20T19:37:21;12.37;;;4.80;;
11642;SDS011;5877;50.930;6.918;2023-12-20T19:42:16;8.77;;;4.20;;
11642;SDS011;5877;50.930;6.918;2023-12-20T19:47:16;9.17;;;5.00;;
11642;SDS011;5877;50.930;6.918;2023-12-20T19:52:17;10.13;;;4.90;;
11642;SDS011;5877;50.930;6.918;2023-12-20T19:57:09;11.50;;;4.33;;
11642;SDS011;5877;50.930;6.918;2023-12-20T20:02:09;12.33;;;6.20;;
11642;SDS011;5877;50.930;6.918;2023-12-20T20:07:01;10.20;;;4.37;;
11642;SDS011;5877;50.930;6.918;2023-12-20T20:11:54;8.93;;;4.77;;
11642;SDS011;5877;50.930;6.918;2023-12-20T20:16:47;8.17;;;4.40;;
11642;SDS011;5877;50.930;6.918;2023-12-20T20:21:42;6.77;;;3.40;;
11642;SDS011;5877;50.930;6.918;2023-12-20T20:26:35;8.63;;;3.57;;
11642;SDS011;5877;50.930;6.918;2023-12-20T20:31:28;8.53;;;4.93;;
11642;SDS011;5877;50.930;6.918;2023-12-20T20:36:26;7.47;;;3.23;;
11642;SDS011;5877;50.930;6.918;2023-12-20T20:41:18;6.50;;;3.90;;
11642;SDS011;5877;50.930;6.918;2023-12-20T20:46:13;6.67;;;2.70;;
11642;SDS011;5877;50.930;6.918;2023-12-20T20:51:06;6.13;;;2.67;;
11642;SDS011;5877;50.930;6.918;2023-12-20T20:56:03;6.13;;;3.50;;
11642;SDS011;5877;50.930;6.918;2023-12-20T21:00:56;7.60;;;3.90;;
11642;SDS011;5877;50.930;6.918;2023-12-20T21:05:49;11.97;;;4.60;;
11642;SDS011;5877;50.930;6.918;2023-12-20T21:10:41;6.40;;;3.17;;
11642;SDS011;5877;50.930;6.918;2023-12-20T21:15:37;9.00;;;3.50;;
11642;SDS011;5877;50.930;6.918;2023-12-20T21:20:31;10.53;;;5.73;;
11642;SDS011;5877;50.930;6.918;2023-12-20T21:25:23;6.90;;;4.33;;
11642;SDS011;5877;50.930;6.918;2023-12-20T21:30:15;6.43;;;2.83;;
11642;SDS011;5877;50.930;6.918;2023-12-20T21:35:08;5.63;;;2.90;;
11642;SDS011;5877;50.930;6.918;2023-12-20T21:40:05;7.83;;;3.67;;
11642;SDS011;5877;50.930;6.918;2023-12-20T21:45:00;5.23;;;2.90;;
11642;SDS011;5877;50.930;6.918;2023-12-20T21:49:51;6.00;;;4.10;;
11642;SDS011;5877;50.930;6.918;2023-12-20T21:54:44;4.73;;;3.20;;
11642;SDS011;5877;50.930;6.918;2023-12-20T21:59:37;5.47;;;3.47;;
11642;SDS011;5877;50.930;6.918;2023-12-20T22:04:31;4.90;;;2.57;;
11642;SDS011;5877;50.930;6.918;2023-12-20T22:09:25;7.70;;;3.60;;
11642;SDS011;5877;50.930;6.918;2023-12-20T22:14:17;5.43;;;3.07;;
11642;SDS011;5877;50.930;6.918;2023-12-20T22:19:09;8.50;;;3.30;;
11642;SDS011;5877;50.930;6.918;2023-12-20T22:24:03;6.87;;;2.97;;
11642;SDS011;5877;50.930;6.918;2023-12-20T22:28:56;7.40;;;4.00;;
11642;SDS011;5877;50.930;6.918;2023-12-20T22:33:49;7.23;;;3.73;;
11642;SDS011;5877;50.930;6.918;2023-12-20T22:38:42;8.57;;;3.20;;
11642;SDS011;5877;50.930;6.918;2023-12-20T22:43:37;7.27;;;3.53;;
11642;SDS011;5877;50.930;6.918;2023-12-20T22:48:30;5.97;;;3.40;;
11642;SDS011;5877;50.930;6.918;2023-12-20T22:53:23;6.57;;;3.30;;
11642;SDS011;5877;50.930;6.918;2023-12-20T22:58:15;4.97;;;2.43;;
11642;SDS011;5877;50.930;6.918;2023-12-20T23:03:09;4.33;;;2.53;;
11642;SDS011;5877;50.930;6.918;2023-12-20T23:08:38;5.43;;;2.80;;
11642;SDS011;5877;50.930;6.918;2023-12-20T23:13:30;3.87;;;2.10;;
11642;SDS011;5877;50.930;6.918;2023-12-20T23:18:23;3.40;;;1.53;;
11642;SDS011;5877;50.930;6.918;2023-12-20T23:23:16;6.73;;;4.43;;
11642;SDS011;5877;50.930;6.918;2023-12-20T23:28:08;5.07;;;3.40;;
11642;SDS011;5877;50.930;6.918;2023-12-20T23:33:03;5.20;;;4.53;;
11642;SDS011;5877;50.930;6.918;2023-12-20T23:38:02;4.07;;;3.07;;
11642;SDS011;5877;50.930;6.918;2023-12-20T23:42:57;4.47;;;3.50;;
11642;SDS011;5877;50.930;6.918;2023-12-20T23:47:49;4.13;;;2.63;;
11642;SDS011;5877;50.930;6.918;2023-12-20T23:52:43;4.00;;;3.57;;
11642;SDS011;5877;50.930;6.918;2023-12-20T23:57:38;2.87;;;2.17;;
